Time;durP1;ratioP1;P1;durP2;ratioP2;P2;SDS_P1;SDS_P2;PMS_P1;PMS_P2;Temp;Humidity;BMP_temperature;BMP_pressure;BME280_temperature;BME280_humidity;BME280_pressure;Samples;Min_cycle;Max_cycle;Signal;HPM_P1;HPM_P2
2023/05/03 00:02:09;;;;;;;2.93;2.73;;;9.80;99.90;;;;;;5108422;28;20464;-67
2023/05/03 00:04:36;;;;;;;6.30;2.80;;;9.80;99.90;;;;;;5109035;28;20564;-67
2023/05/03 00:07:03;;;;;;;4.23;2.80;;;9.80;99.90;;;;;;5108878;28;20491;-67
2023/05/03 00:09:30;;;;;;;3.80;2.73;;;9.80;99.90;;;;;;5106784;28;20460;-67
2023/05/03 00:11:57;;;;;;;10.37;2.80;;;9.70;99.90;;;;;;5105290;28;20468;-67
2023/05/03 00:14:23;;;;;;;4.20;3.37;;;9.60;99.90;;;;;;5105249;28;20522;-67
2023/05/03 00:16:50;;;;;;;3.87;2.80;;;9.50;99.90;;;;;;5105278;28;20977;-67
2023/05/03 00:19:19;;;;;;;4.50;2.70;;;9.40;99.90;;;;;;5107204;28;20549;-67
2023/05/03 00:21:46;;;;;;;6.70;2.90;;;9.50;99.90;;;;;;5107755;28;20453;-68
2023/05/03 00:24:12;;;;;;;7.17;2.90;;;9.50;99.90;;;;;;5108080;28;20532;-67
2023/05/03 00:26:39;;;;;;;3.77;2.77;;;9.50;99.90;;;;;;5107608;28;20457;-67
2023/05/03 00:29:06;;;;;;;3.43;3.13;;;9.50;99.90;;;;;;5107554;28;20540;-67
2023/05/03 00:31:33;;;;;;;4.53;3.23;;;9.40;99.90;;;;;;5107546;28;20552;-67
2023/05/03 00:34:00;;;;;;;4.53;2.70;;;9.40;99.90;;;;;;5107358;28;20513;-68
2023/05/03 00:36:29;;;;;;;5.87;2.87;;;9.40;99.90;;;;;;5107562;28;20544;-68
2023/05/03 00:38:56;;;;;;;6.90;2.60;;;9.50;99.90;;;;;;5106959;28;20481;-67
2023/05/03 00:41:23;;;;;;;5.00;2.60;;;9.50;99.90;;;;;;5108114;28;20521;-67
2023/05/03 00:43:50;;;;;;;9.90;3.13;;;9.50;99.90;;;;;;5107905;28;20453;-68
2023/05/03 00:46:17;;;;;;;4.47;2.60;;;9.50;99.90;;;;;;5107499;28;20460;-68
2023/05/03 00:48:44;;;;;;;5.07;3.07;;;9.50;99.90;;;;;;5106126;28;20450;-68
2023/05/03 00:51:14;;;;;;;5.60;4.20;;;9.50;99.90;;;;;;5106440;28;20450;-68
2023/05/03 00:53:43;;;;;;;3.20;2.90;;;9.50;99.90;;;;;;5106613;28;20450;-68
2023/05/03 00:56:10;;;;;;;11.93;3.37;;;9.40;99.90;;;;;;5106049;28;20517;-68
2023/05/03 00:58:39;;;;;;;8.10;3.00;;;9.40;99.90;;;;;;5105825;28;20492;-68
2023/05/03 01:01:06;;;;;;;6.30;4.20;;;9.40;99.90;;;;;;5106476;28;20476;-68
2023/05/03 01:03:36;;;;;;;5.43;3.60;;;9.40;99.90;;;;;;5106998;28;20449;-68
2023/05/03 01:06:10;;;;;;;7.93;3.23;;;9.30;99.90;;;;;;5107347;28;20457;-68
2023/05/03 01:08:43;;;;;;;4.20;3.20;;;9.20;99.90;;;;;;5107399;28;20461;-68
2023/05/03 01:11:19;;;;;;;7.30;3.27;;;9.20;99.90;;;;;;5106542;28;20444;-68
2023/05/03 01:13:55;;;;;;;3.60;3.30;;;9.20;99.90;;;;;;5105615;28;20528;-68
2023/05/03 01:16:30;;;;;;;3.50;2.87;;;9.20;99.90;;;;;;5106490;28;20448;-68
2023/05/03 01:19:01;;;;;;;10.03;3.23;;;9.20;99.90;;;;;;5106327;28;20583;-68
2023/05/03 01:21:29;;;;;;;4.57;3.37;;;9.10;99.90;;;;;;5106852;28;20445;-68
2023/05/03 01:24:03;;;;;;;8.90;3.87;;;9.00;99.90;;;;;;5107533;28;20457;-68
2023/05/03 01:26:32;;;;;;;5.10;2.87;;;9.00;99.90;;;;;;5106390;28;20505;-68
2023/05/03 01:28:59;;;;;;;5.37;3.00;;;8.90;99.90;;;;;;5106779;28;20449;-68
2023/05/03 01:31:32;;;;;;;5.50;3.70;;;8.90;99.90;;;;;;5106378;28;20449;-68
2023/05/03 01:34:14;;;;;;;3.23;2.93;;;8.80;99.90;;;;;;5106587;28;20508;-68
2023/05/03 01:36:44;;;;;;;6.87;3.23;;;8.80;99.90;;;;;;5106336;28;20438;-68
2023/05/03 01:39:16;;;;;;;4.07;3.10;;;8.80;99.90;;;;;;5106103;28;20576;-68
2023/05/03 01:41:45;;;;;;;3.17;2.87;;;8.80;99.90;;;;;;5106333;28;20467;-68
2023/05/03 01:44:13;;;;;;;4.43;2.67;;;8.70;99.90;;;;;;5105819;28;20461;-67
2023/05/03 01:46:44;;;;;;;9.20;3.30;;;8.70;99.90;;;;;;5106119;28;20521;-67
2023/05/03 01:49:11;;;;;;;5.90;2.70;;;8.60;99.90;;;;;;5106171;28;20450;-67
2023/05/03 01:51:38;;;;;;;5.47;3.00;;;8.60;99.90;;;;;;5106692;28;20458;-67
2023/05/03 01:54:05;;;;;;;3.80;2.67;;;8.60;99.90;;;;;;5107283;28;20491;-67
2023/05/03 01:56:34;;;;;;;3.80;2.97;;;8.50;99.90;;;;;;5107472;28;20469;-67
2023/05/03 01:59:03;;;;;;;6.70;2.73;;;8.40;99.90;;;;;;5106496;28;20546;-67
2023/05/03 02:01:30;;;;;;;3.90;2.50;;;8.40;99.90;;;;;;5105788;28;20457;-68
2023/05/03 02:03:57;;;;;;;11.27;3.00;;;8.50;99.90;;;;;;5106518;28;20520;-67
2023/05/03 02:06:24;;;;;;;8.43;3.03;;;8.50;99.90;;;;;;5105853;28;20464;-67
2023/05/03 02:08:51;;;;;;;17.60;3.20;;;8.40;99.90;;;;;;5106014;28;20453;-67
2023/05/03 02:11:18;;;;;;;3.10;2.80;;;8.40;99.90;;;;;;5106036;28;20525;-67
2023/05/03 02:13:45;;;;;;;8.47;3.30;;;8.30;99.90;;;;;;5106066;28;20457;-67
2023/05/03 02:16:13;;;;;;;5.40;3.23;;;8.30;99.90;;;;;;5106120;28;20528;-68
2023/05/03 02:18:40;;;;;;;10.00;3.57;;;8.20;99.90;;;;;;5106061;28;20477;-67
2023/05/03 02:21:08;;;;;;;5.13;2.90;;;8.20;99.90;;;;;;5106517;28;20512;-67
2023/05/03 02:23:35;;;;;;;6.50;3.63;;;8.30;99.90;;;;;;5106237;28;20477;-67
2023/05/03 02:26:02;;;;;;;3.80;2.77;;;8.20;99.90;;;;;;5106063;28;20489;-67
2023/05/03 02:28:29;;;;;;;4.10;2.73;;;8.10;99.90;;;;;;5105449;28;20517;-67
2023/05/03 02:30:56;;;;;;;5.43;3.73;;;8.00;99.90;;;;;;5106014;28;20491;-67
2023/05/03 02:33:24;;;;;;;8.27;3.70;;;8.00;99.90;;;;;;5105841;28;20536;-67
2023/05/03 02:35:51;;;;;;;4.37;3.40;;;7.90;99.90;;;;;;5105958;28;20453;-67
2023/05/03 02:38:17;;;;;;;4.73;3.63;;;7.90;99.90;;;;;;5105851;28;20501;-67
2023/05/03 02:40:44;;;;;;;11.77;3.30;;;7.80;99.90;;;;;;5105806;28;20536;-68
2023/05/03 02:43:11;;;;;;;7.80;3.77;;;7.80;99.90;;;;;;5104930;28;20453;-68
2023/05/03 02:45:38;;;;;;;6.87;3.50;;;7.70;99.90;;;;;;5105949;28;20463;-68
2023/05/03 02:48:05;;;;;;;8.53;3.70;;;7.70;99.90;;;;;;5105783;28;20528;-68
2023/05/03 02:50:34;;;;;;;9.40;3.60;;;7.80;99.90;;;;;;5105852;28;20460;-68
2023/05/03 02:53:01;;;;;;;9.30;3.80;;;7.80;99.90;;;;;;5104970;28;20453;-68
2023/05/03 02:55:28;;;;;;;4.63;3.67;;;7.70;99.90;;;;;;5104568;28;20445;-68
2023/05/03 02:57:55;;;;;;;7.10;3.80;;;7.70;99.90;;;;;;5104400;28;20468;-68
2023/05/03 03:00:22;;;;;;;8.90;3.97;;;7.70;99.90;;;;;;5104943;28;20492;-68
2023/05/03 03:02:48;;;;;;;6.83;3.27;;;7.70;99.90;;;;;;5105411;28;20847;-68
2023/05/03 03:05:16;;;;;;;8.83;5.73;;;7.70;99.90;;;;;;5103964;28;20465;-68
2023/05/03 03:07:44;;;;;;;10.23;4.27;;;7.60;99.90;;;;;;5104479;28;20475;-68
2023/05/03 03:10:12;;;;;;;4.60;3.67;;;7.50;99.90;;;;;;5103891;28;20445;-68
2023/05/03 03:12:39;;;;;;;7.60;4.20;;;7.40;99.90;;;;;;5101273;28;20457;-68
2023/05/03 03:15:07;;;;;;;5.57;3.70;;;7.40;99.90;;;;;;5101920;28;20463;-68
2023/05/03 03:17:37;;;;;;;9.27;4.37;;;7.30;99.90;;;;;;5102372;28;20564;-68
2023/05/03 03:20:05;;;;;;;5.77;3.70;;;7.30;99.90;;;;;;5102571;28;20479;-68
2023/05/03 03:22:32;;;;;;;10.47;4.30;;;7.40;99.90;;;;;;5102795;28;20480;-68
2023/05/03 03:25:00;;;;;;;10.33;4.47;;;7.40;99.90;;;;;;5103270;28;20496;-68
2023/05/03 03:27:27;;;;;;;7.87;4.53;;;7.40;99.90;;;;;;5102255;28;20459;-68
2023/05/03 03:29:54;;;;;;;6.77;4.13;;;7.40;99.90;;;;;;5102531;28;20532;-68
2023/05/03 03:32:21;;;;;;;7.43;3.60;;;7.40;99.90;;;;;;5104756;28;20469;-68
2023/05/03 03:34:48;;;;;;;8.63;5.30;;;7.50;99.90;;;;;;5103808;28;20449;-68
2023/05/03 03:37:15;;;;;;;7.73;6.00;;;7.50;99.90;;;;;;5103440;28;20449;-68
2023/05/03 03:39:42;;;;;;;5.53;4.00;;;7.50;99.90;;;;;;5103833;28;20496;-68
2023/05/03 03:42:11;;;;;;;4.53;3.63;;;7.40;99.90;;;;;;5103600;28;20850;-68
2023/05/03 03:44:38;;;;;;;6.70;4.13;;;7.30;99.90;;;;;;5103640;28;20464;-68
2023/05/03 03:47:04;;;;;;;5.70;3.90;;;7.20;99.90;;;;;;5103530;28;20453;-68
2023/05/03 03:49:31;;;;;;;4.83;4.10;;;7.20;99.90;;;;;;5103200;28;20464;-68
2023/05/03 03:51:58;;;;;;;5.07;3.40;;;7.20;99.90;;;;;;5103480;28;20540;-68
2023/05/03 03:54:25;;;;;;;7.47;4.27;;;7.30;99.90;;;;;;5105850;28;20521;-68
2023/05/03 03:56:52;;;;;;;14.87;4.00;;;7.30;99.90;;;;;;5106761;28;20536;-67
2023/05/03 03:59:20;;;;;;;9.83;4.00;;;7.20;99.90;;;;;;5106640;28;20553;-68
2023/05/03 04:01:47;;;;;;;6.57;3.83;;;7.10;99.90;;;;;;5106799;28;20477;-68
2023/05/03 04:04:14;;;;;;;8.70;4.90;;;7.10;99.90;;;;;;5105663;28;20491;-68
2023/05/03 04:06:40;;;;;;;11.10;4.00;;;7.10;99.90;;;;;;5106041;28;20544;-67
2023/05/03 04:09:09;;;;;;;5.67;3.53;;;7.20;99.90;;;;;;5106189;28;20445;-68
2023/05/03 04:11:36;;;;;;;4.93;3.70;;;7.10;99.90;;;;;;5103844;28;20457;-68
2023/05/03 04:14:03;;;;;;;4.07;3.30;;;7.10;99.90;;;;;;5104456;28;20544;-68
2023/05/03 04:16:31;;;;;;;5.70;3.67;;;7.20;99.90;;;;;;5103852;28;20468;-68
2023/05/03 04:18:58;;;;;;;10.20;4.00;;;7.20;99.90;;;;;;5103960;28;20841;-68
2023/05/03 04:21:27;;;;;;;8.00;3.67;;;7.20;99.90;;;;;;5104087;28;20483;-68
2023/05/03 04:23:53;;;;;;;6.47;4.10;;;7.20;99.90;;;;;;5103572;28;20457;-68
2023/05/03 04:26:23;;;;;;;11.87;4.97;;;7.20;99.90;;;;;;5102486;28;20453;-68
2023/05/03 04:28:50;;;;;;;7.77;5.27;;;7.20;99.90;;;;;;5103349;28;20465;-68
2023/05/03 04:31:17;;;;;;;16.93;5.30;;;7.20;99.90;;;;;;5105521;28;20521;-68
2023/05/03 04:33:46;;;;;;;10.47;5.20;;;7.30;99.90;;;;;;5106400;28;20833;-68
2023/05/03 04:36:14;;;;;;;11.57;4.87;;;7.30;99.90;;;;;;5103712;28;20453;-68
2023/05/03 04:38:41;;;;;;;13.17;5.17;;;7.30;99.90;;;;;;5102295;28;20488;-68
2023/05/03 04:41:08;;;;;;;10.57;4.53;;;7.20;99.90;;;;;;5102743;28;21024;-68
2023/05/03 04:43:35;;;;;;;11.17;4.60;;;7.10;99.90;;;;;;5103470;28;20520;-68
2023/05/03 04:46:03;;;;;;;9.43;4.50;;;7.10;99.90;;;;;;5104398;28;20449;-68
2023/05/03 04:48:30;;;;;;;8.20;4.50;;;7.10;99.90;;;;;;5104107;28;20464;-68
2023/05/03 04:50:58;;;;;;;9.43;5.87;;;7.10;99.90;;;;;;5103577;28;20452;-67
2023/05/03 04:53:26;;;;;;;8.03;4.80;;;7.20;99.90;;;;;;5103204;28;20467;-67
2023/05/03 04:55:53;;;;;;;6.47;4.40;;;7.10;99.90;;;;;;5103387;28;20533;-67
2023/05/03 04:58:20;;;;;;;7.30;4.70;;;7.10;99.90;;;;;;5102381;28;20464;-67
2023/05/03 05:00:47;;;;;;;9.43;4.80;;;7.20;99.90;;;;;;5103174;28;20483;-68
2023/05/03 05:03:15;;;;;;;6.77;4.37;;;7.20;99.90;;;;;;5103021;28;20453;-67
2023/05/03 05:05:42;;;;;;;6.33;4.43;;;7.20;99.90;;;;;;5103789;28;20457;-68
2023/05/03 05:08:10;;;;;;;10.60;5.80;;;7.20;99.90;;;;;;5105223;28;21022;-68
2023/05/03 05:10:38;;;;;;;10.57;4.90;;;7.20;99.90;;;;;;5106636;28;20559;-67
2023/05/03 05:13:05;;;;;;;8.70;5.27;;;7.20;99.90;;;;;;5105862;28;20456;-67
2023/05/03 05:15:32;;;;;;;10.10;5.10;;;7.20;99.90;;;;;;5106240;28;20453;-67
2023/05/03 05:17:59;;;;;;;8.93;5.27;;;7.30;99.90;;;;;;5106523;28;20453;-67
2023/05/03 05:20:26;;;;;;;6.47;3.90;;;7.30;99.90;;;;;;5106578;28;20556;-67
2023/05/03 05:22:53;;;;;;;11.10;5.70;;;7.40;99.90;;;;;;5107012;28;20500;-67
2023/05/03 05:25:22;;;;;;;10.87;5.77;;;7.40;99.90;;;;;;5104187;28;20453;-67
2023/05/03 05:27:48;;;;;;;11.10;6.20;;;7.50;99.90;;;;;;5106245;28;20496;-68
2023/05/03 05:30:15;;;;;;;7.77;5.40;;;7.50;99.90;;;;;;5106005;28;20532;-67
2023/05/03 05:32:42;;;;;;;8.80;4.77;;;7.50;99.90;;;;;;5105522;28;20467;-67
2023/05/03 05:35:09;;;;;;;9.53;5.43;;;7.40;99.90;;;;;;5104488;28;20552;-68
2023/05/03 05:37:36;;;;;;;8.60;4.30;;;7.50;99.90;;;;;;5104953;28;20511;-68
2023/05/03 05:40:04;;;;;;;14.77;4.90;;;7.50;99.90;;;;;;5104917;28;20461;-68
2023/05/03 05:42:32;;;;;;;8.30;4.53;;;7.40;99.90;;;;;;5105480;28;20461;-68
2023/05/03 05:44:59;;;;;;;7.57;4.40;;;7.50;99.90;;;;;;5105745;28;20496;-68
2023/05/03 05:47:26;;;;;;;9.13;4.53;;;7.50;99.90;;;;;;5104915;28;20491;-68
2023/05/03 05:49:53;;;;;;;13.23;4.10;;;7.60;99.90;;;;;;5104673;28;20453;-68
2023/05/03 05:52:20;;;;;;;5.43;3.97;;;7.60;99.90;;;;;;5105117;28;20552;-68
2023/05/03 05:54:47;;;;;;;7.27;4.10;;;7.60;99.90;;;;;;5106057;28;20450;-68
2023/05/03 05:57:14;;;;;;;5.63;4.10;;;7.70;99.90;;;;;;5104277;28;20528;-68
2023/05/03 05:59:43;;;;;;;9.73;5.40;;;7.60;99.90;;;;;;5103328;28;20488;-68
2023/05/03 06:02:17;;;;;;;6.60;4.20;;;7.60;99.90;;;;;;5103219;28;20557;-67
2023/05/03 06:04:45;;;;;;;8.10;3.70;;;7.60;99.90;;;;;;5103991;28;20440;-68
2023/05/03 06:07:13;;;;;;;6.60;4.40;;;7.70;99.90;;;;;;5104345;28;20619;-69
2023/05/03 06:09:40;;;;;;;8.67;3.97;;;7.80;99.90;;;;;;5105076;28;20450;-68
2023/05/03 06:12:07;;;;;;;19.03;4.67;;;7.90;99.90;;;;;;5104188;28;20454;-68
2023/05/03 06:14:34;;;;;;;10.73;3.77;;;7.80;99.90;;;;;;5103049;28;20449;-67
2023/05/03 06:17:02;;;;;;;10.87;4.90;;;7.90;99.90;;;;;;5103767;28;20855;-68
2023/05/03 06:19:29;;;;;;;4.60;3.77;;;7.90;99.90;;;;;;5103047;28;20503;-68
2023/05/03 06:21:56;;;;;;;4.37;3.13;;;8.00;99.90;;;;;;5104127;28;20500;-68
2023/05/03 06:24:23;;;;;;;5.57;3.30;;;8.00;99.90;;;;;;5104343;28;20483;-68
2023/05/03 06:26:50;;;;;;;6.37;3.93;;;8.10;99.90;;;;;;5105304;28;20522;-68
2023/05/03 06:29:17;;;;;;;7.13;4.07;;;8.20;99.90;;;;;;5106501;28;20464;-68
2023/05/03 06:31:43;;;;;;;6.63;3.90;;;8.30;99.90;;;;;;5105067;28;20515;-68
2023/05/03 06:34:12;;;;;;;4.17;3.30;;;8.40;99.90;;;;;;5104399;28;20544;-68
2023/05/03 06:36:38;;;;;;;5.50;3.40;;;8.50;99.90;;;;;;5102308;28;20532;-68
2023/05/03 06:39:08;;;;;;;5.90;3.40;;;8.50;99.90;;;;;;5101725;28;20834;-68
2023/05/03 06:41:35;;;;;;;5.00;3.37;;;8.40;99.90;;;;;;5102286;28;20445;-68
2023/05/03 06:44:02;;;;;;;4.20;3.03;;;8.50;99.90;;;;;;5102763;28;20458;-68
2023/05/03 06:46:29;;;;;;;5.53;3.60;;;8.50;99.90;;;;;;5101374;28;20489;-68
2023/05/03 06:48:56;;;;;;;6.93;3.23;;;8.50;99.90;;;;;;5101796;28;20667;-68
2023/05/03 06:51:28;;;;;;;4.33;2.63;;;8.50;99.90;;;;;;5102902;28;20541;-68
2023/05/03 06:53:56;;;;;;;5.77;3.13;;;8.60;99.90;;;;;;5100754;28;20433;-67
2023/05/03 06:56:23;;;;;;;5.87;3.50;;;8.60;99.90;;;;;;5100209;28;20445;-68
2023/05/03 06:58:50;;;;;;;5.53;2.80;;;8.60;99.90;;;;;;5100951;28;20929;-67
2023/05/03 07:01:17;;;;;;;3.83;2.80;;;8.70;99.90;;;;;;5100326;28;20568;-68
2023/05/03 07:03:44;;;;;;;5.70;3.57;;;8.70;99.90;;;;;;5101347;28;20449;-68
2023/05/03 07:06:11;;;;;;;4.40;2.40;;;8.70;99.90;;;;;;5104129;28;20477;-68
2023/05/03 07:08:39;;;;;;;5.40;3.00;;;8.80;99.90;;;;;;5104802;28;20481;-68
2023/05/03 07:11:06;;;;;;;8.30;2.63;;;8.90;99.90;;;;;;5104140;28;20454;-68
2023/05/03 07:13:33;;;;;;;3.93;2.27;;;9.10;99.90;;;;;;5104854;28;20543;-68
2023/05/03 07:16:00;;;;;;;6.43;3.30;;;9.20;99.90;;;;;;5106388;28;20526;-68
2023/05/03 07:18:27;;;;;;;9.50;3.00;;;9.30;99.90;;;;;;5104335;28;20982;-68
2023/05/03 07:20:55;;;;;;;5.17;2.87;;;9.20;99.90;;;;;;5104152;28;20477;-69
2023/05/03 07:23:22;;;;;;;7.90;2.90;;;9.30;99.90;;;;;;5105439;28;20484;-68
2023/05/03 07:25:52;;;;;;;3.60;2.47;;;9.30;99.90;;;;;;5103795;28;20961;-68
2023/05/03 07:28:19;;;;;;;4.93;2.60;;;9.30;99.90;;;;;;5105814;28;20445;-68
2023/05/03 07:30:46;;;;;;;5.63;3.07;;;9.30;99.90;;;;;;5108814;28;20584;-68
2023/05/03 07:33:13;;;;;;;2.80;2.40;;;9.40;99.90;;;;;;5107536;28;20499;-68
2023/05/03 07:35:40;;;;;;;3.93;2.30;;;9.40;99.90;;;;;;5105491;28;20527;-68
2023/05/03 07:38:06;;;;;;;7.30;2.93;;;9.50;99.90;;;;;;5106029;28;20515;-68
2023/05/03 07:40:33;;;;;;;3.93;2.30;;;9.50;99.90;;;;;;5106629;28;20496;-68
2023/05/03 07:43:02;;;;;;;4.70;2.47;;;9.50;99.90;;;;;;5105662;28;20453;-68
2023/05/03 07:45:28;;;;;;;4.00;2.20;;;9.50;99.90;;;;;;5106995;28;20492;-68
2023/05/03 07:47:56;;;;;;;6.17;2.67;;;9.60;99.90;;;;;;5106979;28;20532;-68
2023/05/03 07:50:23;;;;;;;5.80;2.80;;;9.50;99.90;;;;;;5106834;28;20449;-68
2023/05/03 07:52:51;;;;;;;4.93;2.40;;;9.60;99.90;;;;;;5106300;28;20453;-68
2023/05/03 07:55:18;;;;;;;4.47;2.20;;;9.60;99.90;;;;;;5104299;28;20979;-68
2023/05/03 07:57:45;;;;;;;6.47;2.70;;;9.50;99.90;;;;;;5104913;28;20560;-68
2023/05/03 08:00:16;;;;;;;3.00;2.63;;;9.60;99.90;;;;;;5104511;28;20823;-67
2023/05/03 08:02:43;;;;;;;3.77;2.40;;;9.60;99.90;;;;;;5105628;28;20434;-68
2023/05/03 08:05:13;;;;;;;6.50;2.80;;;9.50;99.90;;;;;;5105441;28;20544;-67
2023/05/03 08:07:40;;;;;;;6.33;2.53;;;9.60;99.90;;;;;;5106053;28;20898;-67
2023/05/03 08:10:08;;;;;;;2.67;2.37;;;9.60;99.90;;;;;;5106482;28;20460;-68
2023/05/03 08:12:36;;;;;;;4.70;2.27;;;9.70;99.90;;;;;;5107146;28;20453;-68
2023/05/03 08:15:05;;;;;;;4.63;2.70;;;9.70;99.90;;;;;;5105941;28;20459;-68
2023/05/03 08:17:40;;;;;;;8.43;3.00;;;9.70;99.90;;;;;;5106669;28;20450;-68
2023/05/03 08:20:08;;;;;;;4.60;3.20;;;9.80;99.90;;;;;;5106666;28;20559;-68
2023/05/03 08:22:36;;;;;;;5.27;2.67;;;9.90;99.90;;;;;;5107386;28;20464;-68
2023/05/03 08:25:04;;;;;;;5.20;2.73;;;9.90;99.90;;;;;;5105837;28;20453;-68
2023/05/03 08:27:31;;;;;;;7.07;2.57;;;9.90;99.90;;;;;;5106201;28;20464;-67
2023/05/03 08:29:59;;;;;;;5.90;3.03;;;10.00;99.90;;;;;;5108592;28;20486;-68
2023/05/03 08:32:25;;;;;;;7.27;2.70;;;10.10;99.90;;;;;;5108797;28;20832;-68
2023/05/03 08:34:54;;;;;;;6.33;3.33;;;10.00;99.90;;;;;;5108147;28;20989;-68
2023/05/03 08:37:21;;;;;;;7.63;2.93;;;10.00;99.90;;;;;;5106700;28;20512;-68
2023/05/03 08:39:48;;;;;;;3.33;2.40;;;10.10;99.90;;;;;;5105762;28;20501;-68
2023/05/03 08:42:15;;;;;;;6.57;2.63;;;10.00;99.90;;;;;;5107479;28;20516;-68
2023/05/03 08:44:48;;;;;;;5.93;2.90;;;10.10;99.90;;;;;;5106889;28;20842;-68
2023/05/03 08:47:16;;;;;;;5.83;2.77;;;10.20;99.90;;;;;;5106131;28;20442;-67
2023/05/03 08:49:43;;;;;;;5.17;3.00;;;10.10;99.90;;;;;;5107171;28;20450;-68
2023/05/03 08:52:14;;;;;;;7.60;3.70;;;10.10;99.90;;;;;;5107970;28;20599;-68
2023/05/03 08:54:41;;;;;;;3.27;2.97;;;10.10;99.90;;;;;;5107788;28;20893;-68
2023/05/03 08:57:11;;;;;;;8.00;3.20;;;10.20;99.90;;;;;;5107345;28;20495;-69
2023/05/03 08:59:52;;;;;;;5.70;3.50;;;10.20;99.90;;;;;;5106240;28;20467;-68
2023/05/03 09:02:20;;;;;;;6.23;3.40;;;10.20;99.90;;;;;;5106236;28;20787;-67
2023/05/03 09:04:47;;;;;;;3.80;3.40;;;10.20;99.90;;;;;;5107183;28;20453;-68
2023/05/03 09:07:15;;;;;;;5.60;3.30;;;10.30;99.90;;;;;;5107036;28;20501;-68
2023/05/03 09:09:42;;;;;;;6.07;3.00;;;10.40;99.90;;;;;;5106310;28;20465;-68
2023/05/03 09:12:09;;;;;;;3.90;2.50;;;10.40;99.90;;;;;;5107174;28;20453;-68
2023/05/03 09:14:46;;;;;;;7.73;2.70;;;10.50;99.90;;;;;;5107001;28;20926;-68
2023/05/03 09:17:19;;;;;;;7.73;3.27;;;10.60;99.90;;;;;;5107486;28;20570;-67
2023/05/03 09:19:54;;;;;;;7.90;3.23;;;10.70;99.90;;;;;;5103087;28;20453;-67
2023/05/03 09:22:23;;;;;;;4.10;2.90;;;10.50;99.90;;;;;;5103706;28;20499;-68
2023/05/03 09:28:12;;;;;;;5.83;3.47;;;10.70;99.90;;;;;;5105519;28;20424;-67
2023/05/03 09:30:39;;;;;;;5.57;3.20;;;10.80;99.90;;;;;;5105532;28;20446;-67
2023/05/03 09:33:06;;;;;;;3.70;2.23;;;10.90;99.90;;;;;;5105544;28;20527;-68
2023/05/03 09:35:33;;;;;;;12.87;4.80;;;11.00;99.90;;;;;;5104143;28;20468;-67
2023/05/03 09:38:02;;;;;;;3.33;2.43;;;11.10;99.90;;;;;;5104159;28;20536;-67
2023/05/03 09:40:29;;;;;;;6.37;2.73;;;11.20;99.90;;;;;;5105525;28;20527;-68
2023/05/03 09:43:07;;;;;;;8.10;2.90;;;11.30;99.90;;;;;;5105699;28;21038;-67
2023/05/03 09:45:34;;;;;;;6.60;2.80;;;11.30;99.90;;;;;;5105954;28;20472;-68
2023/05/03 09:48:03;;;;;;;7.13;2.70;;;11.30;99.90;;;;;;5107503;28;20441;-68
2023/05/03 09:50:32;;;;;;;4.70;3.00;;;11.20;99.90;;;;;;5110614;28;20517;-69
2023/05/03 09:53:03;;;;;;;7.13;2.27;;;11.20;99.90;;;;;;5108400;28;20507;-69
2023/05/03 09:55:35;;;;;;;6.17;2.60;;;11.30;99.90;;;;;;5108454;28;20462;-68
2023/05/03 09:58:05;;;;;;;4.27;2.80;;;11.40;99.90;;;;;;5107493;28;20453;-68
2023/05/03 10:00:36;;;;;;;6.20;3.00;;;11.40;99.90;;;;;;5104207;28;20488;-68
2023/05/03 10:03:08;;;;;;;5.33;2.80;;;11.60;99.90;;;;;;5104182;28;20520;-67
2023/05/03 10:05:40;;;;;;;4.67;2.63;;;11.80;99.90;;;;;;5102865;28;20450;-67
2023/05/03 10:08:10;;;;;;;5.27;3.10;;;11.80;99.90;;;;;;5097348;28;20442;-68
2023/05/03 10:10:40;;;;;;;4.37;2.83;;;11.90;99.50;;;;;;5097572;28;20457;-68
2023/05/03 10:13:07;;;;;;;13.20;4.57;;;11.80;98.30;;;;;;5097391;28;20464;-69
2023/05/03 10:15:36;;;;;;;5.90;4.30;;;11.70;98.20;;;;;;5097900;28;20548;-68
2023/05/03 10:18:07;;;;;;;7.43;2.83;;;11.90;99.50;;;;;;5098391;28;20913;-67
2023/05/03 10:20:38;;;;;;;3.37;2.80;;;12.00;98.20;;;;;;5097608;28;20441;-69
2023/05/03 10:23:11;;;;;;;4.07;2.73;;;12.00;96.30;;;;;;5097756;28;20529;-71
2023/05/03 10:25:39;;;;;;;7.50;2.53;;;12.00;97.10;;;;;;5098125;28;20979;-69
2023/05/03 10:28:07;;;;;;;5.20;2.63;;;12.20;96.30;;;;;;5098329;28;20544;-68
2023/05/03 10:30:35;;;;;;;3.13;2.23;;;12.20;95.90;;;;;;5098574;28;20489;-69
2023/05/03 10:33:30;;;;;;;6.10;2.53;;;12.30;95.20;;;;;;5097705;28;20485;-67
2023/05/03 10:35:59;;;;;;;4.33;2.70;;;12.40;95.60;;;;;;5098288;28;20437;-69
2023/05/03 10:38:29;;;;;;;6.27;2.47;;;12.40;94.60;;;;;;5097887;28;20488;-68
2023/05/03 10:40:57;;;;;;;8.50;3.00;;;12.40;93.80;;;;;;5098537;28;20477;-68
2023/05/03 10:43:44;;;;;;;4.40;2.50;;;12.50;92.70;;;;;;5098044;28;20816;-68
2023/05/03 10:46:30;;;;;;;2.50;2.30;;;12.50;92.10;;;;;;5098050;28;20453;-68
2023/05/03 10:49:21;;;;;;;4.73;2.93;;;12.40;92.40;;;;;;5098723;28;20441;-68
2023/05/03 10:51:48;;;;;;;3.73;2.27;;;12.50;92.30;;;;;;5098651;28;20808;-68
2023/05/03 10:54:18;;;;;;;4.17;3.20;;;12.50;91.30;;;;;;5097459;28;20464;-68
2023/05/03 10:56:49;;;;;;;5.60;2.27;;;12.70;90.90;;;;;;5098209;28;20449;-68
2023/05/03 10:59:16;;;;;;;3.37;2.10;;;12.70;89.50;;;;;;5097604;28;20829;-69
2023/05/03 11:01:45;;;;;;;5.90;2.37;;;12.70;86.90;;;;;;5096805;28;20488;-69
2023/05/03 11:04:19;;;;;;;4.00;2.23;;;12.70;86.20;;;;;;5100931;28;20552;-68
2023/05/03 11:06:50;;;;;;;3.93;2.27;;;12.70;87.20;;;;;;5100494;28;20438;-68
2023/05/03 11:09:18;;;;;;;4.53;2.00;;;12.70;82.50;;;;;;5100872;28;20446;-68
2023/05/03 11:11:45;;;;;;;3.77;2.10;;;12.70;82.40;;;;;;5101171;28;20445;-68
2023/05/03 11:14:13;;;;;;;4.17;2.30;;;12.70;81.80;;;;;;5101776;28;20856;-67
2023/05/03 11:16:46;;;;;;;2.27;2.00;;;12.90;83.30;;;;;;5101274;28;20461;-68
2023/05/03 11:19:14;;;;;;;6.27;2.30;;;14.00;82.20;;;;;;5102694;28;20438;-68
2023/05/03 11:21:42;;;;;;;4.50;2.40;;;15.20;77.30;;;;;;5102873;28;20477;-69
2023/05/03 11:24:09;;;;;;;5.60;2.77;;;16.50;69.30;;;;;;5104349;28;21013;-67
2023/05/03 11:26:38;;;;;;;3.27;1.60;;;18.10;59.40;;;;;;5105976;28;20459;-68
2023/05/03 11:29:05;;;;;;;6.43;2.00;;;19.60;53.70;;;;;;5106504;28;20467;-69
2023/05/03 11:31:34;;;;;;;3.70;1.80;;;20.90;48.00;;;;;;5106683;28;20522;-67
2023/05/03 11:34:01;;;;;;;4.63;1.70;;;22.30;45.10;;;;;;5106417;28;20787;-68
2023/05/03 11:36:29;;;;;;;4.70;1.93;;;22.00;35.80;;;;;;5105465;28;20521;-68
2023/05/03 11:38:56;;;;;;;5.63;2.13;;;21.90;36.10;;;;;;5106505;28;20480;-68
2023/05/03 11:41:23;;;;;;;4.40;2.07;;;21.80;34.40;;;;;;5106832;28;20544;-68
2023/05/03 11:43:51;;;;;;;3.70;1.90;;;22.10;34.40;;;;;;5107242;28;20783;-68
2023/05/03 11:46:20;;;;;;;5.00;2.30;;;22.30;32.80;;;;;;5106616;28;20524;-68
2023/05/03 11:48:47;;;;;;;3.50;1.90;;;23.30;34.00;;;;;;5105728;28;20489;-69
2023/05/03 11:51:15;;;;;;;3.00;2.10;;;24.20;30.80;;;;;;5105802;28;20459;-68
2023/05/03 11:53:42;;;;;;;6.20;1.97;;;24.30;29.10;;;;;;5105295;28;20453;-66
2023/05/03 11:56:12;;;;;;;3.93;1.97;;;24.30;29.50;;;;;;5097694;28;20552;-66
2023/05/03 11:58:51;;;;;;;5.53;2.10;;;24.50;28.20;;;;;;5097176;28;20956;-66
2023/05/03 12:01:20;;;;;;;6.60;1.77;;;23.20;27.80;;;;;;5097171;28;20563;-66
2023/05/03 12:03:48;;;;;;;4.07;1.93;;;22.50;28.20;;;;;;5096953;28;20552;-66
2023/05/03 12:06:16;;;;;;;5.03;2.03;;;22.40;28.30;;;;;;5097044;28;20478;-66
2023/05/03 12:08:43;;;;;;;4.20;1.90;;;23.00;29.10;;;;;;5097428;28;20461;-66
2023/05/03 12:11:10;;;;;;;3.57;1.40;;;23.80;28.20;;;;;;5097073;28;20457;-67
2023/05/03 12:13:38;;;;;;;2.83;1.90;;;24.60;27.70;;;;;;5096778;28;20453;-67
2023/05/03 12:16:08;;;;;;;2.90;1.60;;;25.70;28.30;;;;;;5096850;28;20463;-66
2023/05/03 12:18:49;;;;;;;2.67;1.90;;;26.90;26.60;;;;;;5096940;28;20500;-66
2023/05/03 12:21:17;;;;;;;3.93;1.73;;;27.90;24.60;;;;;;5097307;28;20488;-65
2023/05/03 12:23:44;;;;;;;5.23;2.03;;;27.90;22.30;;;;;;5096812;28;20453;-66
2023/05/03 12:26:11;;;;;;;4.97;2.10;;;25.90;21.90;;;;;;5096603;28;20518;-66
2023/05/03 12:28:38;;;;;;;3.60;2.40;;;24.70;22.30;;;;;;5096674;28;20453;-66
2023/05/03 12:31:06;;;;;;;5.73;2.40;;;24.80;24.00;;;;;;5096762;28;20778;-66
2023/05/03 12:33:33;;;;;;;3.60;2.00;;;25.50;23.70;;;;;;5096633;28;20452;-65
2023/05/03 12:36:01;;;;;;;4.63;1.93;;;26.00;21.90;;;;;;5096475;28;20458;-67
2023/05/03 12:38:28;;;;;;;3.77;2.20;;;26.00;21.60;;;;;;5096629;28;20596;-66
2023/05/03 12:40:54;;;;;;;5.33;2.07;;;26.40;21.80;;;;;;5096872;28;20461;-66
2023/05/03 12:43:21;;;;;;;3.23;2.00;;;26.90;20.60;;;;;;5096503;28;21000;-66
2023/05/03 12:45:48;;;;;;;3.30;2.40;;;27.20;20.50;;;;;;5096244;28;20453;-66
2023/05/03 12:48:17;;;;;;;3.47;2.03;;;27.70;19.80;;;;;;5096310;28;20463;-66
2023/05/03 12:50:45;;;;;;;3.93;1.60;;;28.60;20.20;;;;;;5096934;28;20801;-66
2023/05/03 12:53:12;;;;;;;2.53;1.90;;;29.60;20.10;;;;;;5097259;28;20561;-66
2023/05/03 12:55:39;;;;;;;5.80;1.90;;;30.40;18.60;;;;;;5097502;28;20544;-65
2023/05/03 12:58:06;;;;;;;3.30;2.50;;;30.90;17.20;;;;;;5097464;28;20537;-66
2023/05/03 13:00:33;;;;;;;2.73;2.23;;;31.70;17.00;;;;;;5097413;28;20484;-66
2023/05/03 13:03:00;;;;;;;4.97;2.00;;;31.50;15.60;;;;;;5097316;28;20561;-65